sensor_id;sensor_type;location;lat;lon;timestamp;P1;durP1;ratioP1;P2;durP2;ratioP2
38879;SDS011;25887;30.194;-97.880;2024-02-16T00:00:12;1.90;;;1.40;;
38879;SDS011;25887;30.194;-97.880;2024-02-16T00:02:39;2.53;;;1.40;;
38879;SDS011;25887;30.194;-97.880;2024-02-16T00:05:10;3.80;;;2.03;;
38879;SDS011;25887;30.194;-97.880;2024-02-16T00:07:37;3.85;;;1.58;;
38879;SDS011;25887;30.194;-97.880;2024-02-16T00:10:05;1.80;;;1.30;;
38879;SDS011;25887;30.194;-97.880;2024-02-16T00:12:33;4.25;;;2.08;;
38879;SDS011;25887;30.194;-97.880;2024-02-16T00:14:59;4.65;;;1.55;;
38879;SDS011;25887;30.194;-97.880;2024-02-16T00:17:26;5.63;;;1.70;;
38879;SDS011;25887;30.194;-97.880;2024-02-16T00:19:55;2.78;;;1.52;;
38879;SDS011;25887;30.194;-97.880;2024-02-16T00:22:22;3.85;;;1.65;;
38879;SDS011;25887;30.194;-97.880;2024-02-16T00:24:49;3.47;;;1.60;;
38879;SDS011;25887;30.194;-97.880;2024-02-16T00:27:16;4.88;;;1.70;;
38879;SDS011;25887;30.194;-97.880;2024-02-16T00:29:42;4.32;;;1.77;;
38879;SDS011;25887;30.194;-97.880;2024-02-16T00:32:09;5.57;;;1.70;;
38879;SDS011;25887;30.194;-97.880;2024-02-16T00:34:38;4.07;;;1.90;;
38879;SDS011;25887;30.194;-97.880;2024-02-16T00:37:06;2.22;;;1.30;;
38879;SDS011;25887;30.194;-97.880;2024-02-16T00:39:40;3.08;;;1.83;;
38879;SDS011;25887;30.194;-97.880;2024-02-16T00:42:08;2.75;;;1.50;;
38879;SDS011;25887;30.194;-97.880;2024-02-16T00:44:34;5.18;;;2.03;;
38879;SDS011;25887;30.194;-97.880;2024-02-16T00:47:01;2.75;;;1.65;;
38879;SDS011;25887;30.194;-97.880;2024-02-16T00:49:27;2.72;;;1.50;;
38879;SDS011;25887;30.194;-97.880;2024-02-16T00:51:53;2.65;;;1.70;;
38879;SDS011;25887;30.194;-97.880;2024-02-16T00:54:19;1.85;;;1.48;;
38879;SDS011;25887;30.194;-97.880;2024-02-16T00:56:46;2.10;;;1.60;;
38879;SDS011;25887;30.194;-97.880;2024-02-16T00:59:12;4.28;;;1.80;;
38879;SDS011;25887;30.194;-97.880;2024-02-16T01:01:38;3.33;;;1.67;;
38879;SDS011;25887;30.194;-97.880;2024-02-16T01:04:05;8.57;;;1.83;;
38879;SDS011;25887;30.194;-97.880;2024-02-16T01:06:32;7.10;;;1.65;;
38879;SDS011;25887;30.194;-97.880;2024-02-16T01:08:59;4.25;;;1.75;;
38879;SDS011;25887;30.194;-97.880;2024-02-16T01:11:25;4.43;;;1.65;;
38879;SDS011;25887;30.194;-97.880;2024-02-16T01:13:52;5.10;;;1.48;;
38879;SDS011;25887;30.194;-97.880;2024-02-16T01:16:18;4.60;;;1.85;;
38879;SDS011;25887;30.194;-97.880;2024-02-16T01:18:44;2.75;;;1.63;;
38879;SDS011;25887;30.194;-97.880;2024-02-16T01:21:11;4.05;;;1.58;;
38879;SDS011;25887;30.194;-97.880;2024-02-16T01:23:37;3.00;;;1.60;;
38879;SDS011;25887;30.194;-97.880;2024-02-16T01:26:03;3.25;;;2.05;;
38879;SDS011;25887;30.194;-97.880;2024-02-16T01:28:29;6.45;;;1.95;;
38879;SDS011;25887;30.194;-97.880;2024-02-16T01:30:56;3.30;;;1.88;;
38879;SDS011;25887;30.194;-97.880;2024-02-16T01:33:22;4.15;;;1.92;;
38879;SDS011;25887;30.194;-97.880;2024-02-16T01:35:48;3.88;;;1.90;;
38879;SDS011;25887;30.194;-97.880;2024-02-16T01:38:15;5.43;;;2.00;;
38879;SDS011;25887;30.194;-97.880;2024-02-16T01:40:41;2.35;;;1.63;;
38879;SDS011;25887;30.194;-97.880;2024-02-16T01:43:07;2.38;;;1.75;;
38879;SDS011;25887;30.194;-97.880;2024-02-16T01:45:33;3.38;;;1.48;;
38879;SDS011;25887;30.194;-97.880;2024-02-16T01:48:00;6.18;;;2.38;;
38879;SDS011;25887;30.194;-97.880;2024-02-16T01:50:26;3.75;;;2.10;;
38879;SDS011;25887;30.194;-97.880;2024-02-16T01:52:54;3.20;;;1.67;;
38879;SDS011;25887;30.194;-97.880;2024-02-16T01:55:21;2.95;;;1.80;;
38879;SDS011;25887;30.194;-97.880;2024-02-16T01:57:48;5.95;;;1.70;;
38879;SDS011;25887;30.194;-97.880;2024-02-16T02:00:17;2.83;;;1.77;;
38879;SDS011;25887;30.194;-97.880;2024-02-16T02:02:44;6.82;;;1.92;;
38879;SDS011;25887;30.194;-97.880;2024-02-16T02:05:11;3.75;;;1.52;;
38879;SDS011;25887;30.194;-97.880;2024-02-16T02:07:38;2.60;;;1.77;;
38879;SDS011;25887;30.194;-97.880;2024-02-16T02:10:04;5.18;;;2.13;;
38879;SDS011;25887;30.194;-97.880;2024-02-16T02:12:31;4.43;;;1.88;;
38879;SDS011;25887;30.194;-97.880;2024-02-16T02:15:00;3.55;;;1.70;;
38879;SDS011;25887;30.194;-97.880;2024-02-16T02:17:28;5.15;;;1.80;;
38879;SDS011;25887;30.194;-97.880;2024-02-16T02:19:54;5.25;;;2.22;;
38879;SDS011;25887;30.194;-97.880;2024-02-16T02:22:23;5.28;;;2.58;;
38879;SDS011;25887;30.194;-97.880;2024-02-16T02:24:52;4.82;;;2.03;;
38879;SDS011;25887;30.194;-97.880;2024-02-16T02:27:21;7.75;;;2.58;;
38879;SDS011;25887;30.194;-97.880;2024-02-16T02:29:52;3.97;;;1.95;;
38879;SDS011;25887;30.194;-97.880;2024-02-16T02:32:21;4.68;;;2.20;;
38879;SDS011;25887;30.194;-97.880;2024-02-16T02:34:47;5.70;;;2.15;;
38879;SDS011;25887;30.194;-97.880;2024-02-16T02:37:13;7.50;;;2.30;;
38879;SDS011;25887;30.194;-97.880;2024-02-16T02:39:40;4.30;;;1.70;;
38879;SDS011;25887;30.194;-97.880;2024-02-16T02:42:06;4.47;;;2.45;;
38879;SDS011;25887;30.194;-97.880;2024-02-16T02:44:33;5.25;;;2.15;;
38879;SDS011;25887;30.194;-97.880;2024-02-16T02:47:00;6.03;;;1.98;;
38879;SDS011;25887;30.194;-97.880;2024-02-16T02:49:27;4.38;;;2.20;;
38879;SDS011;25887;30.194;-97.880;2024-02-16T02:51:53;3.83;;;2.03;;
38879;SDS011;25887;30.194;-97.880;2024-02-16T02:54:19;5.60;;;2.35;;
38879;SDS011;25887;30.194;-97.880;2024-02-16T02:56:46;4.00;;;2.13;;
38879;SDS011;25887;30.194;-97.880;2024-02-16T02:59:12;3.65;;;2.30;;
38879;SDS011;25887;30.194;-97.880;2024-02-16T03:01:39;7.70;;;2.13;;
38879;SDS011;25887;30.194;-97.880;2024-02-16T03:04:08;3.33;;;1.80;;
38879;SDS011;25887;30.194;-97.880;2024-02-16T03:06:34;6.18;;;2.15;;
38879;SDS011;25887;30.194;-97.880;2024-02-16T03:09:01;3.40;;;1.92;;
38879;SDS011;25887;30.194;-97.880;2024-02-16T03:11:27;3.67;;;2.05;;
38879;SDS011;25887;30.194;-97.880;2024-02-16T03:13:53;5.28;;;2.00;;
38879;SDS011;25887;30.194;-97.880;2024-02-16T03:16:22;3.33;;;2.40;;
38879;SDS011;25887;30.194;-97.880;2024-02-16T03:18:48;5.65;;;2.10;;
38879;SDS011;25887;30.194;-97.880;2024-02-16T03:21:15;7.45;;;2.60;;
38879;SDS011;25887;30.194;-97.880;2024-02-16T03:23:44;4.90;;;2.03;;
38879;SDS011;25887;30.194;-97.880;2024-02-16T03:26:16;7.28;;;2.58;;
38879;SDS011;25887;30.194;-97.880;2024-02-16T03:28:47;6.32;;;2.30;;
38879;SDS011;25887;30.194;-97.880;2024-02-16T03:31:20;6.43;;;2.20;;
38879;SDS011;25887;30.194;-97.880;2024-02-16T03:33:47;4.22;;;2.35;;
38879;SDS011;25887;30.194;-97.880;2024-02-16T03:36:15;7.32;;;2.45;;
38879;SDS011;25887;30.194;-97.880;2024-02-16T03:38:45;7.07;;;2.60;;
38879;SDS011;25887;30.194;-97.880;2024-02-16T03:41:18;6.75;;;2.50;;
38879;SDS011;25887;30.194;-97.880;2024-02-16T03:50:37;5.70;;;2.30;;
38879;SDS011;25887;30.194;-97.880;2024-02-16T03:53:03;3.92;;;2.30;;
38879;SDS011;25887;30.194;-97.880;2024-02-16T03:55:29;8.43;;;2.22;;
38879;SDS011;25887;30.194;-97.880;2024-02-16T03:57:58;7.55;;;2.92;;
38879;SDS011;25887;30.194;-97.880;2024-02-16T04:00:25;6.30;;;2.72;;
38879;SDS011;25887;30.194;-97.880;2024-02-16T04:02:51;4.45;;;2.30;;
38879;SDS011;25887;30.194;-97.880;2024-02-16T04:05:17;4.47;;;2.42;;
38879;SDS011;25887;30.194;-97.880;2024-02-16T04:07:43;6.60;;;2.25;;
38879;SDS011;25887;30.194;-97.880;2024-02-16T04:10:09;5.20;;;2.45;;
38879;SDS011;25887;30.194;-97.880;2024-02-16T04:12:35;3.33;;;2.38;;
38879;SDS011;25887;30.194;-97.880;2024-02-16T04:15:02;5.00;;;2.28;;
38879;SDS011;25887;30.194;-97.880;2024-02-16T04:17:29;5.38;;;2.38;;
38879;SDS011;25887;30.194;-97.880;2024-02-16T04:19:55;5.15;;;2.30;;
38879;SDS011;25887;30.194;-97.880;2024-02-16T04:22:22;4.75;;;2.22;;
38879;SDS011;25887;30.194;-97.880;2024-02-16T04:24:48;6.85;;;2.60;;
38879;SDS011;25887;30.194;-97.880;2024-02-16T04:27:14;6.50;;;3.00;;
38879;SDS011;25887;30.194;-97.880;2024-02-16T04:29:43;5.22;;;2.17;;
38879;SDS011;25887;30.194;-97.880;2024-02-16T04:32:10;7.38;;;2.75;;
38879;SDS011;25887;30.194;-97.880;2024-02-16T04:34:36;4.03;;;2.28;;
38879;SDS011;25887;30.194;-97.880;2024-02-16T04:37:02;5.90;;;2.47;;
38879;SDS011;25887;30.194;-97.880;2024-02-16T04:43:01;6.53;;;2.30;;
38879;SDS011;25887;30.194;-97.880;2024-02-16T04:45:28;4.50;;;2.63;;
38879;SDS011;25887;30.194;-97.880;2024-02-16T04:47:55;6.35;;;3.03;;
38879;SDS011;25887;30.194;-97.880;2024-02-16T04:50:21;4.18;;;2.53;;
38879;SDS011;25887;30.194;-97.880;2024-02-16T04:52:48;5.95;;;3.00;;
38879;SDS011;25887;30.194;-97.880;2024-02-16T04:55:14;5.82;;;2.60;;
38879;SDS011;25887;30.194;-97.880;2024-02-16T04:57:40;3.90;;;2.38;;
38879;SDS011;25887;30.194;-97.880;2024-02-16T05:00:07;8.00;;;2.83;;
38879;SDS011;25887;30.194;-97.880;2024-02-16T05:02:34;4.20;;;2.58;;
38879;SDS011;25887;30.194;-97.880;2024-02-16T05:05:04;4.30;;;2.70;;
38879;SDS011;25887;30.194;-97.880;2024-02-16T05:07:30;5.60;;;2.63;;
38879;SDS011;25887;30.194;-97.880;2024-02-16T05:10:01;4.00;;;2.25;;
38879;SDS011;25887;30.194;-97.880;2024-02-16T05:12:28;3.85;;;2.60;;
38879;SDS011;25887;30.194;-97.880;2024-02-16T05:14:54;3.80;;;2.45;;
38879;SDS011;25887;30.194;-97.880;2024-02-16T05:17:21;4.47;;;2.35;;
38879;SDS011;25887;30.194;-97.880;2024-02-16T05:19:47;8.95;;;2.45;;
38879;SDS011;25887;30.194;-97.880;2024-02-16T05:22:14;7.80;;;2.92;;
38879;SDS011;25887;30.194;-97.880;2024-02-16T05:24:43;8.15;;;2.90;;
38879;SDS011;25887;30.194;-97.880;2024-02-16T05:27:10;5.45;;;2.85;;
38879;SDS011;25887;30.194;-97.880;2024-02-16T05:29:36;6.85;;;2.90;;
38879;SDS011;25887;30.194;-97.880;2024-02-16T05:32:03;6.68;;;3.05;;
38879;SDS011;25887;30.194;-97.880;2024-02-16T05:34:29;6.32;;;2.53;;
38879;SDS011;25887;30.194;-97.880;2024-02-16T05:37:03;6.40;;;2.42;;
38879;SDS011;25887;30.194;-97.880;2024-02-16T05:39:32;7.38;;;3.45;;
38879;SDS011;25887;30.194;-97.880;2024-02-16T05:42:01;4.70;;;2.42;;
38879;SDS011;25887;30.194;-97.880;2024-02-16T05:44:27;3.88;;;2.50;;
38879;SDS011;25887;30.194;-97.880;2024-02-16T05:46:53;4.35;;;2.58;;
38879;SDS011;25887;30.194;-97.880;2024-02-16T05:49:20;12.15;;;2.80;;
38879;SDS011;25887;30.194;-97.880;2024-02-16T05:51:46;7.60;;;2.67;;
38879;SDS011;25887;30.194;-97.880;2024-02-16T05:54:32;4.90;;;2.78;;
38879;SDS011;25887;30.194;-97.880;2024-02-16T05:56:58;6.32;;;2.83;;
38879;SDS011;25887;30.194;-97.880;2024-02-16T05:59:25;3.45;;;2.50;;
38879;SDS011;25887;30.194;-97.880;2024-02-16T06:01:52;7.43;;;2.75;;
38879;SDS011;25887;30.194;-97.880;2024-02-16T06:04:18;6.45;;;2.90;;
38879;SDS011;25887;30.194;-97.880;2024-02-16T06:06:52;4.68;;;2.75;;
38879;SDS011;25887;30.194;-97.880;2024-02-16T06:09:19;7.20;;;3.50;;
38879;SDS011;25887;30.194;-97.880;2024-02-16T06:11:46;7.13;;;2.58;;
38879;SDS011;25887;30.194;-97.880;2024-02-16T06:14:12;6.28;;;2.83;;
38879;SDS011;25887;30.194;-97.880;2024-02-16T06:16:38;9.27;;;3.17;;
38879;SDS011;25887;30.194;-97.880;2024-02-16T06:19:07;4.22;;;2.75;;
38879;SDS011;25887;30.194;-97.880;2024-02-16T06:21:35;7.45;;;2.92;;
38879;SDS011;25887;30.194;-97.880;2024-02-16T06:24:01;5.55;;;3.15;;
38879;SDS011;25887;30.194;-97.880;2024-02-16T06:26:28;9.80;;;3.08;;
38879;SDS011;25887;30.194;-97.880;2024-02-16T06:28:55;5.28;;;2.60;;
38879;SDS011;25887;30.194;-97.880;2024-02-16T06:31:22;7.28;;;3.28;;
38879;SDS011;25887;30.194;-97.880;2024-02-16T06:33:48;7.38;;;3.40;;
38879;SDS011;25887;30.194;-97.880;2024-02-16T06:36:14;3.90;;;2.60;;
38879;SDS011;25887;30.194;-97.880;2024-02-16T06:38:40;6.93;;;3.08;;
38879;SDS011;25887;30.194;-97.880;2024-02-16T06:41:06;5.43;;;2.50;;
38879;SDS011;25887;30.194;-97.880;2024-02-16T06:43:33;8.35;;;2.58;;
38879;SDS011;25887;30.194;-97.880;2024-02-16T06:45:59;5.68;;;2.80;;
38879;SDS011;25887;30.194;-97.880;2024-02-16T06:48:25;5.97;;;2.97;;
38879;SDS011;25887;30.194;-97.880;2024-02-16T06:50:51;5.80;;;2.60;;
38879;SDS011;25887;30.194;-97.880;2024-02-16T06:53:19;7.85;;;2.70;;
38879;SDS011;25887;30.194;-97.880;2024-02-16T06:55:45;7.47;;;2.63;;
38879;SDS011;25887;30.194;-97.880;2024-02-16T06:58:11;5.82;;;2.63;;
38879;SDS011;25887;30.194;-97.880;2024-02-16T07:00:38;6.10;;;2.65;;
38879;SDS011;25887;30.194;-97.880;2024-02-16T07:03:07;4.88;;;2.53;;
38879;SDS011;25887;30.194;-97.880;2024-02-16T07:05:36;4.05;;;2.22;;
38879;SDS011;25887;30.194;-97.880;2024-02-16T07:08:03;6.28;;;3.15;;
38879;SDS011;25887;30.194;-97.880;2024-02-16T07:10:31;7.78;;;3.08;;
38879;SDS011;25887;30.194;-97.880;2024-02-16T07:12:57;5.20;;;3.00;;
38879;SDS011;25887;30.194;-97.880;2024-02-16T07:18:16;5.28;;;2.75;;
38879;SDS011;25887;30.194;-97.880;2024-02-16T07:20:42;6.47;;;3.03;;
38879;SDS011;25887;30.194;-97.880;2024-02-16T07:23:08;4.63;;;2.60;;
38879;SDS011;25887;30.194;-97.880;2024-02-16T07:25:36;5.78;;;2.72;;
38879;SDS011;25887;30.194;-97.880;2024-02-16T07:28:02;6.93;;;3.22;;
38879;SDS011;25887;30.194;-97.880;2024-02-16T07:30:28;4.75;;;2.75;;
38879;SDS011;25887;30.194;-97.880;2024-02-16T07:32:55;5.75;;;3.15;;
38879;SDS011;25887;30.194;-97.880;2024-02-16T07:35:24;8.77;;;3.38;;
38879;SDS011;25887;30.194;-97.880;2024-02-16T07:37:50;5.65;;;2.72;;
38879;SDS011;25887;30.194;-97.880;2024-02-16T07:40:20;5.38;;;2.95;;
38879;SDS011;25887;30.194;-97.880;2024-02-16T07:42:47;7.95;;;2.90;;
38879;SDS011;25887;30.194;-97.880;2024-02-16T07:45:14;7.70;;;3.03;;
38879;SDS011;25887;30.194;-97.880;2024-02-16T07:47:40;6.30;;;2.85;;
38879;SDS011;25887;30.194;-97.880;2024-02-16T07:50:09;10.02;;;2.72;;
38879;SDS011;25887;30.194;-97.880;2024-02-16T07:52:36;6.85;;;3.30;;
38879;SDS011;25887;30.194;-97.880;2024-02-16T07:55:08;5.50;;;2.88;;
38879;SDS011;25887;30.194;-97.880;2024-02-16T07:57:35;6.60;;;2.88;;
38879;SDS011;25887;30.194;-97.880;2024-02-16T08:00:01;7.03;;;3.05;;
38879;SDS011;25887;30.194;-97.880;2024-02-16T08:02:29;7.10;;;3.25;;
38879;SDS011;25887;30.194;-97.880;2024-02-16T08:04:55;5.25;;;2.45;;
38879;SDS011;25887;30.194;-97.880;2024-02-16T08:07:21;6.00;;;3.28;;
38879;SDS011;25887;30.194;-97.880;2024-02-16T08:09:47;4.68;;;3.25;;
38879;SDS011;25887;30.194;-97.880;2024-02-16T08:12:15;7.72;;;3.17;;
38879;SDS011;25887;30.194;-97.880;2024-02-16T08:14:41;7.10;;;3.20;;
38879;SDS011;25887;30.194;-97.880;2024-02-16T08:17:08;7.55;;;3.20;;
38879;SDS011;25887;30.194;-97.880;2024-02-16T08:19:41;9.45;;;2.90;;
38879;SDS011;25887;30.194;-97.880;2024-02-16T08:22:08;6.07;;;3.00;;
38879;SDS011;25887;30.194;-97.880;2024-02-16T08:24:36;5.45;;;2.90;;
38879;SDS011;25887;30.194;-97.880;2024-02-16T08:27:02;8.60;;;3.28;;
38879;SDS011;25887;30.194;-97.880;2024-02-16T08:29:30;7.35;;;2.65;;
38879;SDS011;25887;30.194;-97.880;2024-02-16T08:31:56;7.35;;;3.05;;
38879;SDS011;25887;30.194;-97.880;2024-02-16T08:34:22;11.15;;;3.25;;
38879;SDS011;25887;30.194;-97.880;2024-02-16T08:36:51;5.40;;;2.97;;
38879;SDS011;25887;30.194;-97.880;2024-02-16T08:39:17;7.03;;;2.97;;
38879;SDS011;25887;30.194;-97.880;2024-02-16T08:41:45;7.40;;;2.90;;
38879;SDS011;25887;30.194;-97.880;2024-02-16T08:44:14;7.57;;;2.70;;
38879;SDS011;25887;30.194;-97.880;2024-02-16T08:46:40;6.00;;;2.95;;
38879;SDS011;25887;30.194;-97.880;2024-02-16T08:49:07;5.82;;;3.00;;
38879;SDS011;25887;30.194;-97.880;2024-02-16T08:51:35;13.40;;;3.25;;
38879;SDS011;25887;30.194;-97.880;2024-02-16T08:54:01;9.18;;;3.03;;
38879;SDS011;25887;30.194;-97.880;2024-02-16T08:56:27;6.78;;;2.95;;
38879;SDS011;25887;30.194;-97.880;2024-02-16T08:58:54;8.23;;;3.08;;
38879;SDS011;25887;30.194;-97.880;2024-02-16T09:01:32;7.15;;;2.75;;
38879;SDS011;25887;30.194;-97.880;2024-02-16T09:03:59;4.80;;;3.00;;
38879;SDS011;25887;30.194;-97.880;2024-02-16T09:06:26;7.85;;;3.85;;
38879;SDS011;25887;30.194;-97.880;2024-02-16T09:08:53;6.07;;;3.20;;
38879;SDS011;25887;30.194;-97.880;2024-02-16T09:11:20;6.25;;;3.20;;
38879;SDS011;25887;30.194;-97.880;2024-02-16T09:13:46;6.15;;;3.13;;
38879;SDS011;25887;30.194;-97.880;2024-02-16T09:16:13;3.55;;;2.63;;
38879;SDS011;25887;30.194;-97.880;2024-02-16T09:18:39;8.02;;;2.78;;
38879;SDS011;25887;30.194;-97.880;2024-02-16T09:21:06;7.35;;;3.28;;
38879;SDS011;25887;30.194;-97.880;2024-02-16T09:23:33;5.63;;;3.10;;
38879;SDS011;25887;30.194;-97.880;2024-02-16T09:26:01;7.18;;;2.88;;
38879;SDS011;25887;30.194;-97.880;2024-02-16T09:28:27;5.68;;;2.97;;
38879;SDS011;25887;30.194;-97.880;2024-02-16T09:30:54;8.23;;;3.05;;
38879;SDS011;25887;30.194;-97.880;2024-02-16T09:33:21;5.32;;;2.78;;
38879;SDS011;25887;30.194;-97.880;2024-02-16T09:35:49;6.50;;;3.00;;
38879;SDS011;25887;30.194;-97.880;2024-02-16T09:38:16;8.95;;;2.88;;
38879;SDS011;25887;30.194;-97.880;2024-02-16T09:40:43;6.38;;;3.42;;
38879;SDS011;25887;30.194;-97.880;2024-02-16T09:43:09;4.80;;;2.92;;
38879;SDS011;25887;30.194;-97.880;2024-02-16T09:45:36;5.43;;;3.25;;
38879;SDS011;25887;30.194;-97.880;2024-02-16T09:48:03;9.05;;;2.90;;
38879;SDS011;25887;30.194;-97.880;2024-02-16T09:50:37;5.93;;;3.20;;
38879;SDS011;25887;30.194;-97.880;2024-02-16T09:53:06;5.70;;;2.65;;
38879;SDS011;25887;30.194;-97.880;2024-02-16T09:55:34;7.75;;;3.22;;
38879;SDS011;25887;30.194;-97.880;2024-02-16T09:58:01;9.32;;;3.30;;
38879;SDS011;25887;30.194;-97.880;2024-02-16T10:00:30;6.85;;;3.03;;
38879;SDS011;25887;30.194;-97.880;2024-02-16T10:02:56;6.45;;;3.78;;
38879;SDS011;25887;30.194;-97.880;2024-02-16T10:05:22;6.78;;;2.97;;
38879;SDS011;25887;30.194;-97.880;2024-02-16T10:07:49;7.32;;;3.47;;
38879;SDS011;25887;30.194;-97.880;2024-02-16T10:10:25;6.53;;;2.92;;
38879;SDS011;25887;30.194;-97.880;2024-02-16T10:13:03;7.20;;;2.88;;
38879;SDS011;25887;30.194;-97.880;2024-02-16T10:15:34;6.53;;;3.00;;
38879;SDS011;25887;30.194;-97.880;2024-02-16T10:18:04;9.60;;;2.78;;
38879;SDS011;25887;30.194;-97.880;2024-02-16T10:20:31;7.22;;;3.35;;
38879;SDS011;25887;30.194;-97.880;2024-02-16T10:23:10;5.80;;;3.15;;
38879;SDS011;25887;30.194;-97.880;2024-02-16T10:25:38;5.10;;;3.17;;
38879;SDS011;25887;30.194;-97.880;2024-02-16T10:28:08;5.53;;;3.35;;
38879;SDS011;25887;30.194;-97.880;2024-02-16T10:30:39;5.90;;;3.30;;
38879;SDS011;25887;30.194;-97.880;2024-02-16T10:33:09;9.48;;;3.75;;
38879;SDS011;25887;30.194;-97.880;2024-02-16T10:35:39;6.45;;;3.22;;
38879;SDS011;25887;30.194;-97.880;2024-02-16T10:38:07;7.20;;;3.28;;
38879;SDS011;25887;30.194;-97.880;2024-02-16T10:40:39;5.75;;;3.03;;
38879;SDS011;25887;30.194;-97.880;2024-02-16T10:43:11;5.43;;;3.08;;
38879;SDS011;25887;30.194;-97.880;2024-02-16T10:48:07;8.07;;;2.85;;
38879;SDS011;25887;30.194;-97.880;2024-02-16T10:50:36;6.70;;;3.20;;
38879;SDS011;25887;30.194;-97.880;2024-02-16T10:53:14;7.03;;;3.22;;
38879;SDS011;25887;30.194;-97.880;2024-02-16T10:55:58;5.72;;;2.92;;
38879;SDS011;25887;30.194;-97.880;2024-02-16T10:58:26;6.38;;;2.90;;
38879;SDS011;25887;30.194;-97.880;2024-02-16T11:00:55;9.30;;;3.13;;
38879;SDS011;25887;30.194;-97.880;2024-02-16T11:03:23;10.07;;;3.10;;
38879;SDS011;25887;30.194;-97.880;2024-02-16T11:05:51;9.68;;;2.67;;
38879;SDS011;25887;30.194;-97.880;2024-02-16T11:08:19;7.03;;;2.78;;
38879;SDS011;25887;30.194;-97.880;2024-02-16T11:13:34;6.38;;;3.35;;
38879;SDS011;25887;30.194;-97.880;2024-02-16T11:16:03;7.57;;;2.53;;
38879;SDS011;25887;30.194;-97.880;2024-02-16T11:18:40;5.43;;;3.08;;
38879;SDS011;25887;30.194;-97.880;2024-02-16T11:21:12;4.70;;;2.50;;
38879;SDS011;25887;30.194;-97.880;2024-02-16T11:23:41;6.72;;;2.13;;
38879;SDS011;25887;30.194;-97.880;2024-02-16T11:26:12;3.25;;;2.10;;
38879;SDS011;25887;30.194;-97.880;2024-02-16T11:28:43;5.72;;;1.92;;
38879;SDS011;25887;30.194;-97.880;2024-02-16T11:31:10;3.38;;;1.70;;
38879;SDS011;25887;30.194;-97.880;2024-02-16T11:33:42;3.10;;;1.67;;
38879;SDS011;25887;30.194;-97.880;2024-02-16T11:36:16;1.58;;;1.42;;
38879;SDS011;25887;30.194;-97.880;2024-02-16T11:38:51;3.05;;;1.48;;
38879;SDS011;25887;30.194;-97.880;2024-02-16T11:41:22;3.20;;;1.90;;
38879;SDS011;25887;30.194;-97.880;2024-02-16T11:43:49;3.53;;;1.52;;
38879;SDS011;25887;30.194;-97.880;2024-02-16T11:46:15;4.97;;;1.30;;
38879;SDS011;25887;30.194;-97.880;2024-02-16T11:48:45;3.72;;;1.60;;
38879;SDS011;25887;30.194;-97.880;2024-02-16T11:51:17;4.38;;;1.60;;
38879;SDS011;25887;30.194;-97.880;2024-02-16T11:53:44;2.55;;;1.60;;
38879;SDS011;25887;30.194;-97.880;2024-02-16T11:56:23;3.25;;;1.67;;
38879;SDS011;25887;30.194;-97.880;2024-02-16T11:58:52;1.67;;;1.20;;
38879;SDS011;25887;30.194;-97.880;2024-02-16T12:01:23;2.03;;;1.05;;
38879;SDS011;25887;30.194;-97.880;2024-02-16T12:03:50;2.28;;;1.08;;
38879;SDS011;25887;30.194;-97.880;2024-02-16T12:06:21;3.88;;;1.15;;
38879;SDS011;25887;30.194;-97.880;2024-02-16T12:08:47;4.75;;;1.20;;
38879;SDS011;25887;30.194;-97.880;2024-02-16T12:11:23;1.30;;;1.10;;
38879;SDS011;25887;30.194;-97.880;2024-02-16T12:13:52;3.67;;;1.10;;
38879;SDS011;25887;30.194;-97.880;2024-02-16T12:16:22;2.38;;;1.38;;
38879;SDS011;25887;30.194;-97.880;2024-02-16T12:18:48;1.60;;;1.10;;
38879;SDS011;25887;30.194;-97.880;2024-02-16T12:21:17;3.53;;;1.33;;
38879;SDS011;25887;30.194;-97.880;2024-02-16T12:23:46;1.25;;;0.80;;
38879;SDS011;25887;30.194;-97.880;2024-02-16T12:26:13;2.10;;;1.13;;
38879;SDS011;25887;30.194;-97.880;2024-02-16T12:28:40;1.65;;;1.30;;
38879;SDS011;25887;30.194;-97.880;2024-02-16T12:31:08;2.67;;;1.27;;
38879;SDS011;25887;30.194;-97.880;2024-02-16T12:33:38;1.23;;;0.90;;
38879;SDS011;25887;30.194;-97.880;2024-02-16T12:36:04;1.17;;;0.98;;
38879;SDS011;25887;30.194;-97.880;2024-02-16T12:38:31;2.53;;;1.27;;
38879;SDS011;25887;30.194;-97.880;2024-02-16T12:41:00;3.42;;;1.30;;
38879;SDS011;25887;30.194;-97.880;2024-02-16T12:43:27;3.53;;;1.20;;
38879;SDS011;25887;30.194;-97.880;2024-02-16T12:45:56;2.22;;;1.30;;
38879;SDS011;25887;30.194;-97.880;2024-02-16T12:48:27;2.70;;;1.38;;
38879;SDS011;25887;30.194;-97.880;2024-02-16T12:50:58;1.92;;;1.20;;
38879;SDS011;25887;30.194;-97.880;2024-02-16T12:53:26;4.85;;;0.98;;
38879;SDS011;25887;30.194;-97.880;2024-02-16T12:55:56;2.80;;;1.08;;
38879;SDS011;25887;30.194;-97.880;2024-02-16T12:58:25;1.00;;;0.90;;
38879;SDS011;25887;30.194;-97.880;2024-02-16T13:00:52;2.85;;;0.95;;
38879;SDS011;25887;30.194;-97.880;2024-02-16T13:03:21;3.00;;;1.10;;
38879;SDS011;25887;30.194;-97.880;2024-02-16T13:06:03;2.67;;;1.00;;
38879;SDS011;25887;30.194;-97.880;2024-02-16T13:08:33;2.28;;;1.77;;
38879;SDS011;25887;30.194;-97.880;2024-02-16T13:11:02;2.00;;;1.15;;
38879;SDS011;25887;30.194;-97.880;2024-02-16T13:13:28;1.77;;;1.20;;
38879;SDS011;25887;30.194;-97.880;2024-02-16T13:15:55;2.22;;;1.00;;
38879;SDS011;25887;30.194;-97.880;2024-02-16T13:18:24;1.60;;;1.20;;
38879;SDS011;25887;30.194;-97.880;2024-02-16T13:20:51;1.27;;;0.98;;
38879;SDS011;25887;30.194;-97.880;2024-02-16T13:23:17;2.88;;;1.20;;
38879;SDS011;25887;30.194;-97.880;2024-02-16T13:25:44;1.75;;;1.00;;
38879;SDS011;25887;30.194;-97.880;2024-02-16T13:28:10;2.10;;;0.90;;
38879;SDS011;25887;30.194;-97.880;2024-02-16T13:30:41;2.33;;;1.00;;
38879;SDS011;25887;30.194;-97.880;2024-02-16T13:33:16;1.45;;;0.85;;
38879;SDS011;25887;30.194;-97.880;2024-02-16T13:35:43;1.92;;;1.15;;
38879;SDS011;25887;30.194;-97.880;2024-02-16T13:38:09;1.10;;;0.90;;
38879;SDS011;25887;30.194;-97.880;2024-02-16T13:40:35;3.63;;;1.23;;
38879;SDS011;25887;30.194;-97.880;2024-02-16T13:43:02;4.05;;;0.88;;
38879;SDS011;25887;30.194;-97.880;2024-02-16T13:45:29;1.73;;;0.90;;
38879;SDS011;25887;30.194;-97.880;2024-02-16T13:48:18;3.05;;;1.13;;
38879;SDS011;25887;30.194;-97.880;2024-02-16T13:50:46;1.27;;;1.00;;
38879;SDS011;25887;30.194;-97.880;2024-02-16T13:53:15;1.70;;;1.05;;
38879;SDS011;25887;30.194;-97.880;2024-02-16T13:55:42;3.17;;;1.10;;
38879;SDS011;25887;30.194;-97.880;2024-02-16T13:58:10;1.85;;;1.33;;
38879;SDS011;25887;30.194;-97.880;2024-02-16T14:00:36;2.75;;;1.02;;
38879;SDS011;25887;30.194;-97.880;2024-02-16T14:03:06;4.03;;;1.10;;
38879;SDS011;25887;30.194;-97.880;2024-02-16T14:05:38;4.65;;;1.30;;
38879;SDS011;25887;30.194;-97.880;2024-02-16T14:08:05;4.50;;;0.98;;
38879;SDS011;25887;30.194;-97.880;2024-02-16T14:10:36;1.15;;;0.80;;
38879;SDS011;25887;30.194;-97.880;2024-02-16T14:13:02;3.33;;;0.93;;
38879;SDS011;25887;30.194;-97.880;2024-02-16T14:15:29;2.85;;;0.98;;
38879;SDS011;25887;30.194;-97.880;2024-02-16T14:17:56;2.28;;;0.85;;
38879;SDS011;25887;30.194;-97.880;2024-02-16T14:20:22;1.42;;;0.98;;
38879;SDS011;25887;30.194;-97.880;2024-02-16T14:22:49;4.20;;;1.45;;
38879;SDS011;25887;30.194;-97.880;2024-02-16T14:25:15;4.75;;;1.08;;
38879;SDS011;25887;30.194;-97.880;2024-02-16T14:27:41;1.30;;;0.90;;
38879;SDS011;25887;30.194;-97.880;2024-02-16T14:30:08;2.53;;;1.27;;
38879;SDS011;25887;30.194;-97.880;2024-02-16T14:32:38;1.30;;;0.80;;
38879;SDS011;25887;30.194;-97.880;2024-02-16T14:35:04;1.38;;;0.88;;
38879;SDS011;25887;30.194;-97.880;2024-02-16T14:37:33;0.98;;;0.82;;
38879;SDS011;25887;30.194;-97.880;2024-02-16T14:39:59;1.50;;;0.98;;
38879;SDS011;25887;30.194;-97.880;2024-02-16T14:42:26;2.70;;;0.95;;